createdAt,value
2019-02-28T00:00:13.339Z,83.54
2019-02-28T00:02:41.652Z,83.69
2019-02-28T00:05:09.942Z,84.30
2019-02-28T00:07:38.245Z,84.52
2019-02-28T00:10:08.074Z,85.24
2019-02-28T00:12:36.361Z,85.32
2019-02-28T00:15:07.479Z,85.56
2019-02-28T00:17:35.775Z,85.82
2019-02-28T00:20:05.193Z,86.27
2019-02-28T00:22:33.467Z,86.26
2019-02-28T00:25:04.224Z,86.92
2019-02-28T00:27:31.757Z,87.50
2019-02-28T00:30:00.048Z,87.91
2019-02-28T00:32:28.389Z,88.38
2019-02-28T00:34:56.670Z,88.56
2019-02-28T00:37:25.740Z,88.72
2019-02-28T00:39:54.035Z,89.41
2019-02-28T00:42:22.326Z,89.41
2019-02-28T00:44:50.603Z,89.73
2019-02-28T00:47:18.889Z,90.04
2019-02-28T00:49:47.163Z,90.16
2019-02-28T00:52:15.479Z,90.39
2019-02-28T00:54:44.542Z,90.78
2019-02-28T00:57:12.850Z,90.99
2019-02-28T00:59:41.127Z,91.18
2019-02-28T01:02:09.473Z,91.72
2019-02-28T01:04:37.733Z,92.03
2019-02-28T01:07:06.042Z,92.23
2019-02-28T01:09:34.317Z,92.40
2019-02-28T01:12:02.593Z,92.73
2019-02-28T01:14:32.459Z,93.00
2019-02-28T01:17:00.906Z,93.05
2019-02-28T01:19:29.188Z,93.53
2019-02-28T01:21:57.499Z,93.49
2019-02-28T01:24:25.798Z,93.79
2019-02-28T01:26:54.066Z,93.89
2019-02-28T01:29:22.349Z,93.78
2019-02-28T01:31:50.641Z,93.80
2019-02-28T01:34:18.932Z,93.74
2019-02-28T01:36:48.820Z,93.82
2019-02-28T01:39:17.247Z,93.75
2019-02-28T01:41:45.917Z,93.94
2019-02-28T01:44:14.185Z,93.99
2019-02-28T01:46:42.467Z,93.98
2019-02-28T01:49:10.762Z,93.96
2019-02-28T01:51:39.029Z,93.81
2019-02-28T01:54:07.326Z,93.92
2019-02-28T01:56:36.998Z,94.01
2019-02-28T01:59:05.647Z,94.21
2019-02-28T02:01:33.905Z,94.28
2019-02-28T02:04:02.180Z,94.21
2019-02-28T02:06:30.455Z,94.50
2019-02-28T02:08:58.749Z,94.64
2019-02-28T02:11:27.355Z,94.81
2019-02-28T02:13:55.589Z,95.05
2019-02-28T02:16:27.708Z,95.02
2019-02-28T02:18:53.885Z,94.95
2019-02-28T02:21:22.271Z,94.83
2019-02-28T02:23:52.961Z,95.15
2019-02-28T02:26:20.566Z,95.05
2019-02-28T02:28:48.934Z,94.93
2019-02-28T02:31:17.238Z,94.82
2019-02-28T02:33:50.961Z,94.99
2019-02-28T02:36:17.512Z,95.30
2019-02-28T02:38:45.545Z,95.29
2019-02-28T02:41:13.858Z,95.57
2019-02-28T02:43:42.124Z,95.92
2019-02-28T02:46:10.443Z,96.40
2019-02-28T02:48:42.311Z,96.85
2019-02-28T02:51:11.292Z,97.00
2019-02-28T02:53:42.192Z,97.04
2019-02-28T02:56:09.343Z,97.27
2019-02-28T02:58:37.629Z,97.70
2019-02-28T03:01:05.916Z,97.81
2019-02-28T03:03:34.202Z,97.66
2019-02-28T03:06:02.491Z,97.83
2019-02-28T03:08:36.070Z,97.65
2019-02-28T03:11:00.771Z,97.66
2019-02-28T03:13:29.080Z,97.75
2019-02-28T03:15:59.327Z,98.12
2019-02-28T03:18:27.375Z,97.89
2019-02-28T03:20:55.680Z,98.32
2019-02-28T03:23:23.981Z,98.73
2019-02-28T03:25:52.277Z,99.12
2019-02-28T03:28:20.555Z,99.47
2019-02-28T03:30:48.851Z,99.75
2019-02-28T03:33:27.101Z,99.91
2019-02-28T03:35:47.173Z,100.00
2019-02-28T03:38:15.540Z,100.00
2019-02-28T03:40:43.840Z,100.00
2019-02-28T03:43:12.143Z,100.00
2019-02-28T03:45:40.441Z,100.00
2019-02-28T03:48:08.738Z,100.00
2019-02-28T03:50:37.016Z,100.00
2019-02-28T03:53:05.322Z,100.00
2019-02-28T03:55:40.294Z,100.00
2019-02-28T03:58:05.511Z,100.00
2019-02-28T04:00:34.376Z,100.00
2019-02-28T04:03:02.750Z,100.00
2019-02-28T04:05:31.104Z,100.00
2019-02-28T04:07:59.397Z,100.00
2019-02-28T04:10:27.671Z,100.00
2019-02-28T04:12:56.050Z,100.00
2019-02-28T04:15:24.977Z,100.00
2019-02-28T04:17:53.276Z,100.00
2019-02-28T04:20:21.594Z,100.00
2019-02-28T04:22:49.906Z,100.00
2019-02-28T04:25:22.820Z,100.00
2019-02-28T04:27:48.200Z,100.00
2019-02-28T04:30:16.600Z,100.00
2019-02-28T04:32:44.978Z,100.00
2019-02-28T04:35:13.336Z,100.00
2019-02-28T04:37:46.575Z,100.00
2019-02-28T04:40:14.625Z,100.00
2019-02-28T04:42:43.025Z,100.00
2019-02-28T04:45:12.901Z,100.00
2019-02-28T04:47:41.625Z,100.00
2019-02-28T04:50:11.252Z,100.00
2019-02-28T04:52:39.544Z,100.00
2019-02-28T04:55:08.598Z,100.00
2019-02-28T04:57:36.889Z,100.00
2019-02-28T05:00:08.591Z,100.00
2019-02-28T05:02:36.889Z,100.00
2019-02-28T05:05:05.464Z,100.00
2019-02-28T05:07:33.778Z,100.00
2019-02-28T05:10:02.061Z,100.00
2019-02-28T05:12:30.353Z,100.00
2019-02-28T05:15:02.247Z,100.00
2019-02-28T05:17:28.672Z,100.00
2019-02-28T05:19:56.981Z,100.00
2019-02-28T05:22:27.601Z,100.00
2019-02-28T05:24:55.336Z,100.00
2019-02-28T05:27:24.449Z,100.00
2019-02-28T05:29:52.878Z,100.00
2019-02-28T05:32:21.191Z,100.00
2019-02-28T05:34:51.051Z,100.00
2019-02-28T05:37:19.576Z,100.00
2019-02-28T05:39:47.846Z,100.00
2019-02-28T05:42:16.166Z,100.00
2019-02-28T05:44:44.451Z,100.00
2019-02-28T05:47:12.759Z,100.00
2019-02-28T05:49:41.990Z,100.00
2019-02-28T05:52:10.345Z,100.00
2019-02-28T05:54:38.627Z,100.00
2019-02-28T05:57:08.072Z,100.00
2019-02-28T05:59:37.102Z,100.00
2019-02-28T06:02:05.421Z,100.00
2019-02-28T06:04:34.213Z,100.00
2019-02-28T06:07:03.720Z,100.00
2019-02-28T06:09:32.015Z,100.00
2019-02-28T06:12:00.306Z,100.00
2019-02-28T06:14:28.620Z,100.00
2019-02-28T06:16:56.904Z,100.00
2019-02-28T06:19:25.273Z,100.00
2019-02-28T06:21:56.413Z,100.00
2019-02-28T06:24:23.562Z,100.00
2019-02-28T06:26:51.847Z,100.00
2019-02-28T06:29:20.174Z,100.00
2019-02-28T06:31:49.389Z,100.00
2019-02-28T06:34:17.727Z,100.00
2019-02-28T06:36:46.009Z,100.00
2019-02-28T06:39:14.294Z,100.00
2019-02-28T06:41:42.613Z,100.00
2019-02-28T06:44:10.885Z,100.00
2019-02-28T06:46:40.011Z,100.00
2019-02-28T06:49:09.065Z,100.00
2019-02-28T06:51:37.368Z,100.00
2019-02-28T06:54:07.977Z,100.00
2019-02-28T06:56:35.651Z,100.00
2019-02-28T06:59:04.886Z,100.00
2019-02-28T07:01:33.839Z,100.00
2019-02-28T07:04:02.116Z,100.00
2019-02-28T07:06:35.616Z,100.00
2019-02-28T07:09:02.421Z,100.00
2019-02-28T07:11:30.440Z,100.00
2019-02-28T07:13:58.746Z,100.00
2019-02-28T07:16:27.039Z,100.00
2019-02-28T07:18:55.358Z,100.00
2019-02-28T07:21:23.656Z,100.00
2019-02-28T07:23:53.325Z,100.00
2019-02-28T07:26:21.618Z,100.00
2019-02-28T07:28:49.913Z,100.00
2019-02-28T07:31:21.670Z,100.00
2019-02-28T07:33:51.310Z,100.00
2019-02-28T07:36:19.056Z,100.00
2019-02-28T07:38:47.339Z,100.00
2019-02-28T07:41:15.645Z,100.00
2019-02-28T07:43:46.106Z,100.00
2019-02-28T07:46:13.991Z,100.00
2019-02-28T07:48:42.275Z,100.00
2019-02-28T07:51:10.576Z,100.00
2019-02-28T07:53:41.012Z,100.00
2019-02-28T07:56:08.935Z,100.00
2019-02-28T07:58:37.242Z,100.00
2019-02-28T08:01:05.512Z,100.00
2019-02-28T08:03:33.807Z,100.00
2019-02-28T08:06:04.917Z,100.00
2019-02-28T08:08:32.244Z,100.00
2019-02-28T08:11:00.544Z,100.00
2019-02-28T08:13:28.830Z,100.00
2019-02-28T08:16:00.220Z,100.00
2019-02-28T08:18:27.155Z,100.00
2019-02-28T08:20:55.466Z,100.00
2019-02-28T08:23:23.766Z,100.00
2019-02-28T08:25:52.053Z,100.00
2019-02-28T08:28:21.040Z,100.00
2019-02-28T08:30:55.017Z,100.00
2019-02-28T08:33:19.331Z,100.00
2019-02-28T08:35:47.610Z,100.00
2019-02-28T08:38:16.018Z,100.00
2019-02-28T08:40:44.336Z,100.00
2019-02-28T08:43:13.468Z,100.00
2019-02-28T08:45:42.399Z,100.00
2019-02-28T08:48:12.663Z,100.00
2019-02-28T08:50:40.718Z,100.00
2019-02-28T08:53:09.024Z,100.00
2019-02-28T08:55:38.500Z,100.00
2019-02-28T08:58:07.353Z,100.00
2019-02-28T09:00:37.637Z,100.00
2019-02-28T09:03:05.734Z,100.00
2019-02-28T09:05:34.034Z,100.00
2019-02-28T09:08:02.323Z,100.00
2019-02-28T09:10:32.155Z,100.00
2019-02-28T09:13:00.441Z,100.00
2019-02-28T09:15:31.121Z,100.00
2019-02-28T09:17:59.728Z,100.00
2019-02-28T09:20:27.995Z,100.00
2019-02-28T09:23:01.619Z,100.00
2019-02-28T09:25:26.996Z,100.00
2019-02-28T09:27:55.370Z,100.00
2019-02-28T09:30:43.895Z,100.00
2019-02-28T09:33:12.212Z,100.00
2019-02-28T09:35:45.056Z,100.00
2019-02-28T09:38:13.405Z,100.00
2019-02-28T09:40:41.251Z,100.00
2019-02-28T09:43:09.676Z,100.00
2019-02-28T09:45:39.807Z,100.00
2019-02-28T09:48:08.004Z,100.00
2019-02-28T09:50:36.291Z,100.00
2019-02-28T09:53:04.573Z,100.00
2019-02-28T09:55:35.358Z,100.00
2019-02-28T09:58:02.900Z,100.00
2019-02-28T10:00:31.195Z,100.00
2019-02-28T10:02:59.479Z,100.00
2019-02-28T10:05:27.781Z,100.00
2019-02-28T10:08:01.735Z,100.00
2019-02-28T10:10:30.553Z,100.00
2019-02-28T10:12:58.827Z,100.00
2019-02-28T10:15:27.184Z,100.00
2019-02-28T10:17:55.485Z,100.00
2019-02-28T10:20:29.022Z,100.00
2019-02-28T10:22:57.312Z,100.00
2019-02-28T10:25:25.576Z,100.00
2019-02-28T10:27:54.631Z,100.00
2019-02-28T10:30:31.547Z,100.00
2019-02-28T10:32:55.145Z,100.00
2019-02-28T10:35:23.477Z,100.00
2019-02-28T10:37:57.325Z,100.00
2019-02-28T10:40:29.853Z,100.00
2019-02-28T10:42:58.158Z,100.00
2019-02-28T10:45:26.993Z,100.00
2019-02-28T10:47:55.366Z,100.00
2019-02-28T10:50:26.072Z,100.00
2019-02-28T10:52:54.355Z,100.00
2019-02-28T10:55:23.376Z,100.00
2019-02-28T10:57:51.759Z,100.00
2019-02-28T11:00:29.358Z,100.00
2019-02-28T11:02:57.873Z,100.00
2019-02-28T11:05:30.581Z,100.00
2019-02-28T11:07:58.915Z,100.00
2019-02-28T11:10:35.644Z,100.00
2019-02-28T11:13:02.374Z,100.00
2019-02-28T11:15:30.722Z,100.00
2019-02-28T11:17:59.023Z,100.00
2019-02-28T11:20:27.385Z,100.00
2019-02-28T11:22:55.709Z,100.00
2019-02-28T11:25:25.535Z,100.00
2019-02-28T11:27:54.673Z,100.00
2019-02-28T11:30:27.849Z,100.00
2019-02-28T11:32:56.195Z,100.00
2019-02-28T11:35:24.493Z,100.00
2019-02-28T11:37:52.873Z,100.00
2019-02-28T11:40:23.689Z,100.00
2019-02-28T11:42:51.984Z,100.00
2019-02-28T11:45:25.548Z,100.00
2019-02-28T11:47:54.626Z,100.00
2019-02-28T11:50:22.960Z,100.00
2019-02-28T11:52:51.350Z,100.00
2019-02-28T11:55:20.304Z,100.00
2019-02-28T11:57:49.591Z,100.00
2019-02-28T12:00:26.876Z,100.00
2019-02-28T12:02:59.880Z,100.00
2019-02-28T12:05:25.535Z,100.00
2019-02-28T12:07:53.800Z,100.00
2019-02-28T12:10:22.107Z,100.00
2019-02-28T12:12:50.465Z,100.00
2019-02-28T12:15:29.765Z,100.00
2019-02-28T12:18:03.618Z,100.00
2019-02-28T12:20:28.074Z,100.00
2019-02-28T12:22:56.379Z,100.00
2019-02-28T12:25:24.708Z,100.00
2019-02-28T12:27:52.997Z,100.00
2019-02-28T12:30:25.171Z,100.00
2019-02-28T12:32:54.253Z,100.00
2019-02-28T12:35:22.553Z,100.00
2019-02-28T12:37:53.992Z,100.00
2019-02-28T12:40:26.987Z,100.00
2019-02-28T12:42:55.277Z,100.00
2019-02-28T12:45:26.466Z,100.00
2019-02-28T12:47:54.774Z,100.00
2019-02-28T12:50:23.062Z,100.00
2019-02-28T12:52:51.367Z,100.00
2019-02-28T12:55:21.009Z,100.00
2019-02-28T12:57:49.311Z,100.00
2019-02-28T13:00:25.749Z,100.00
2019-02-28T13:02:54.044Z,100.00
2019-02-28T13:05:22.326Z,100.00
2019-02-28T13:07:50.607Z,100.00
2019-02-28T13:10:26.864Z,100.00
2019-02-28T13:12:50.428Z,100.00
2019-02-28T13:15:19.874Z,100.00
2019-02-28T13:17:48.167Z,100.00
2019-02-28T13:20:19.259Z,100.00
2019-02-28T13:22:47.571Z,100.00
2019-02-28T13:25:19.375Z,100.00
2019-02-28T13:27:46.212Z,100.00
2019-02-28T13:30:17.517Z,100.00
2019-02-28T13:32:45.814Z,100.00
2019-02-28T13:35:18.887Z,100.00
2019-02-28T13:37:47.216Z,100.00
2019-02-28T13:40:16.221Z,100.00
2019-02-28T13:42:44.509Z,100.00
2019-02-28T13:45:22.982Z,100.00
2019-02-28T13:47:49.609Z,100.00
2019-02-28T13:50:34.305Z,100.00
2019-02-28T13:53:17.088Z,100.00
2019-02-28T13:55:32.608Z,100.00
2019-02-28T13:58:01.071Z,100.00
2019-02-28T14:00:32.518Z,100.00
2019-02-28T14:03:10.298Z,100.00
2019-02-28T14:05:41.046Z,100.00
2019-02-28T14:08:11.185Z,100.00
2019-02-28T14:10:38.792Z,100.00
2019-02-28T14:13:07.217Z,100.00
2019-02-28T14:15:43.086Z,100.00
2019-02-28T14:18:11.930Z,100.00
2019-02-28T14:20:40.205Z,100.00
2019-02-28T14:23:08.565Z,100.00
2019-02-28T14:25:39.711Z,100.00
2019-02-28T14:28:06.884Z,100.00
2019-02-28T14:30:35.195Z,100.00
2019-02-28T14:33:03.550Z,100.00
2019-02-28T14:35:35.485Z,100.00
2019-02-28T14:38:02.520Z,100.00
2019-02-28T14:40:30.825Z,100.00
2019-02-28T14:42:59.142Z,100.00
2019-02-28T14:45:33.222Z,100.00
2019-02-28T14:48:04.379Z,100.00
2019-02-28T14:50:31.528Z,100.00
2019-02-28T14:52:59.837Z,100.00
2019-02-28T14:55:29.261Z,100.00
2019-02-28T14:57:58.146Z,100.00
2019-02-28T15:00:29.129Z,100.00
2019-02-28T15:02:59.510Z,100.00
2019-02-28T15:05:28.640Z,100.00
2019-02-28T15:07:57.386Z,99.87
2019-02-28T15:10:27.623Z,99.46
2019-02-28T15:12:58.624Z,99.03
2019-02-28T15:15:26.681Z,98.98
2019-02-28T15:17:54.966Z,99.27
2019-02-28T15:20:23.297Z,99.47
2019-02-28T15:22:52.431Z,100.00
2019-02-28T15:25:23.513Z,100.00
2019-02-28T15:27:51.795Z,100.00
2019-02-28T15:30:25.168Z,100.00
2019-02-28T15:32:54.402Z,100.00
2019-02-28T15:35:23.816Z,100.00
2019-02-28T15:37:52.162Z,100.00
2019-02-28T15:40:26.138Z,100.00
2019-02-28T15:42:54.441Z,100.00
2019-02-28T15:45:22.729Z,100.00
2019-02-28T15:47:55.413Z,100.00
2019-02-28T15:50:22.763Z,100.00
2019-02-28T15:52:51.058Z,100.00
2019-02-28T15:55:20.091Z,100.00
2019-02-28T15:57:48.374Z,99.79
2019-02-28T16:00:23.046Z,99.81
2019-02-28T16:02:51.433Z,99.96
2019-02-28T16:05:19.835Z,100.00
2019-02-28T16:07:50.433Z,100.00
2019-02-28T16:10:23.875Z,100.00
2019-02-28T16:12:52.245Z,100.00
2019-02-28T16:15:20.535Z,100.00
2019-02-28T16:17:48.820Z,100.00
2019-02-28T16:20:17.698Z,100.00
2019-02-28T16:22:46.349Z,100.00
2019-02-28T16:25:20.196Z,100.00
2019-02-28T16:27:48.577Z,99.93
2019-02-28T16:30:19.674Z,100.00
2019-02-28T16:32:49.161Z,100.00
2019-02-28T16:35:18.010Z,100.00
2019-02-28T16:37:46.298Z,100.00
2019-02-28T16:40:20.297Z,100.00
2019-02-28T16:42:50.123Z,100.00
2019-02-28T16:45:22.001Z,100.00
2019-02-28T16:47:50.298Z,100.00
2019-02-28T16:50:19.689Z,100.00
2019-02-28T16:52:48.073Z,100.00
2019-02-28T16:55:16.518Z,100.00
2019-02-28T16:57:47.016Z,100.00
2019-02-28T17:00:16.561Z,100.00
2019-02-28T17:02:44.844Z,98.64
2019-02-28T17:05:13.121Z,98.87
2019-02-28T17:07:43.676Z,99.12
2019-02-28T17:10:15.247Z,99.67
2019-02-28T17:12:45.181Z,99.84
2019-02-28T17:15:15.477Z,99.87
2019-02-28T17:17:47.125Z,99.96
2019-02-28T17:20:15.468Z,100.00
2019-02-28T17:22:43.756Z,100.00
2019-02-28T17:25:13.988Z,100.00
2019-02-28T17:27:55.402Z,100.00
2019-02-28T17:30:27.968Z,100.00
2019-02-28T17:32:56.242Z,100.00
2019-02-28T17:35:24.531Z,100.00
2019-02-28T17:37:52.836Z,100.00
2019-02-28T17:40:23.199Z,100.00
2019-02-28T17:42:51.228Z,100.00
2019-02-28T17:45:22.137Z,100.00
2019-02-28T17:48:15.765Z,100.00
2019-02-28T17:50:47.215Z,100.00
2019-02-28T17:53:45.643Z,100.00
2019-02-28T17:56:33.411Z,100.00
2019-02-28T17:59:36.123Z,100.00
2019-02-28T18:02:12.457Z,100.00
2019-02-28T18:05:03.188Z,100.00
2019-02-28T18:07:57.796Z,100.00
2019-02-28T18:10:52.197Z,100.00
2019-02-28T18:13:23.659Z,100.00
2019-02-28T18:16:23.619Z,100.00
2019-02-28T18:19:00.985Z,100.00
2019-02-28T18:21:41.925Z,100.00
2019-02-28T18:24:28.456Z,100.00
2019-02-28T18:27:02.861Z,100.00
2019-02-28T18:30:10.174Z,100.00
2019-02-28T18:32:38.422Z,100.00
2019-02-28T18:35:08.744Z,100.00
2019-02-28T18:37:37.025Z,100.00
2019-02-28T18:40:07.066Z,100.00
2019-02-28T18:42:35.337Z,100.00
2019-02-28T18:45:03.886Z,100.00
2019-02-28T18:47:32.197Z,100.00
2019-02-28T18:50:00.534Z,100.00
2019-02-28T18:52:29.066Z,100.00
2019-02-28T18:55:05.775Z,100.00
2019-02-28T18:57:27.367Z,100.00
2019-02-28T18:59:55.653Z,100.00
2019-02-28T19:02:23.938Z,100.00
2019-02-28T19:04:52.219Z,100.00
2019-02-28T19:07:20.607Z,100.00
2019-02-28T19:09:48.926Z,100.00
2019-02-28T19:12:17.177Z,100.00
2019-02-28T19:14:45.474Z,100.00
2019-02-28T19:17:13.766Z,100.00
2019-02-28T19:19:42.048Z,100.00
2019-02-28T19:22:10.360Z,100.00
2019-02-28T19:24:38.649Z,100.00
2019-02-28T19:27:06.956Z,100.00
2019-02-28T19:29:35.261Z,100.00
2019-02-28T19:32:03.552Z,100.00
2019-02-28T19:34:31.825Z,100.00
2019-02-28T19:37:00.105Z,100.00
2019-02-28T19:39:28.412Z,100.00
2019-02-28T19:41:56.705Z,100.00
2019-02-28T19:44:25.000Z,100.00
2019-02-28T19:46:53.283Z,100.00
2019-02-28T19:49:21.587Z,100.00
2019-02-28T19:51:49.866Z,100.00
2019-02-28T19:54:18.162Z,100.00
2019-02-28T19:56:46.463Z,100.00
2019-02-28T19:59:14.779Z,100.00
2019-02-28T20:01:43.059Z,100.00
2019-02-28T20:04:11.336Z,100.00
2019-02-28T20:06:39.615Z,100.00
2019-02-28T20:09:08.535Z,100.00
2019-02-28T20:11:36.846Z,100.00
2019-02-28T20:14:05.129Z,100.00
2019-02-28T20:16:33.423Z,100.00
2019-02-28T20:19:01.716Z,100.00
2019-02-28T20:21:30.010Z,100.00
2019-02-28T20:23:58.310Z,100.00
2019-02-28T20:26:26.589Z,100.00
2019-02-28T20:28:54.880Z,100.00
2019-02-28T20:31:23.162Z,100.00
2019-02-28T20:33:51.448Z,100.00
2019-02-28T20:36:19.803Z,100.00
2019-02-28T20:38:48.105Z,100.00
2019-02-28T20:41:16.407Z,100.00
2019-02-28T20:43:45.553Z,100.00
2019-02-28T20:46:13.844Z,100.00
2019-02-28T20:48:42.125Z,100.00
2019-02-28T20:51:10.419Z,100.00
2019-02-28T20:53:38.707Z,100.00
2019-02-28T20:56:07.023Z,100.00
2019-02-28T20:58:35.312Z,100.00
2019-02-28T21:01:03.765Z,100.00
2019-02-28T21:03:32.056Z,100.00
2019-02-28T21:06:00.326Z,100.00
2019-02-28T21:08:28.646Z,100.00
2019-02-28T21:10:56.927Z,100.00
2019-02-28T21:13:25.212Z,100.00
2019-02-28T21:15:53.490Z,100.00
2019-02-28T21:18:21.807Z,100.00
2019-02-28T21:20:50.082Z,100.00
2019-02-28T21:23:18.390Z,100.00
2019-02-28T21:25:46.672Z,100.00
2019-02-28T21:28:14.950Z,100.00
2019-02-28T21:30:43.227Z,100.00
2019-02-28T21:33:11.519Z,100.00
2019-02-28T21:35:39.837Z,100.00
2019-02-28T21:38:08.110Z,100.00
2019-02-28T21:40:36.417Z,100.00
2019-02-28T21:43:04.769Z,100.00
2019-02-28T21:45:33.773Z,100.00
2019-02-28T21:48:02.111Z,100.00
2019-02-28T21:50:30.413Z,100.00
2019-02-28T21:52:58.684Z,100.00
2019-02-28T21:55:26.978Z,100.00
2019-02-28T21:57:55.319Z,100.00
2019-02-28T22:00:25.521Z,100.00
2019-02-28T22:02:53.799Z,100.00
2019-02-28T22:05:22.151Z,100.00
2019-02-28T22:07:50.439Z,100.00
2019-02-28T22:10:18.783Z,100.00
2019-02-28T22:12:47.074Z,100.00
2019-02-28T22:15:18.093Z,100.00
2019-02-28T22:17:46.377Z,100.00
2019-02-28T22:20:15.065Z,100.00
2019-02-28T22:22:43.354Z,100.00
2019-02-28T22:25:13.178Z,100.00
2019-02-28T22:27:41.477Z,100.00
2019-02-28T22:30:38.683Z,100.00
2019-02-28T22:33:08.598Z,100.00
2019-02-28T22:35:43.919Z,100.00
2019-02-28T22:38:12.217Z,100.00
2019-02-28T22:40:40.517Z,100.00
2019-02-28T22:43:08.788Z,100.00
2019-02-28T22:45:37.069Z,100.00
2019-02-28T22:48:05.433Z,100.00
2019-02-28T22:50:33.713Z,100.00
2019-02-28T22:53:01.982Z,100.00
2019-02-28T22:55:30.333Z,100.00
2019-02-28T22:57:58.639Z,100.00
2019-02-28T23:01:06.681Z,100.00
2019-02-28T23:03:35.734Z,100.00
2019-02-28T23:06:04.194Z,100.00
2019-02-28T23:08:32.558Z,100.00
2019-02-28T23:11:00.833Z,100.00
2019-02-28T23:13:29.119Z,100.00
2019-02-28T23:15:57.417Z,100.00
2019-02-28T23:18:25.714Z,100.00
2019-02-28T23:20:53.994Z,100.00
2019-02-28T23:23:22.276Z,100.00
2019-02-28T23:25:50.568Z,100.00
2019-02-28T23:28:24.211Z,100.00
2019-02-28T23:31:01.487Z,100.00
2019-02-28T23:33:29.781Z,100.00
2019-02-28T23:35:58.080Z,100.00
2019-02-28T23:38:26.376Z,100.00
2019-02-28T23:40:56.520Z,100.00
2019-02-28T23:43:24.792Z,100.00
2019-02-28T23:45:53.085Z,100.00
2019-02-28T23:48:21.401Z,100.00
2019-02-28T23:50:49.694Z,100.00
2019-02-28T23:53:17.982Z,100.00
2019-02-28T23:55:46.278Z,100.00
2019-02-28T23:58:14.565Z,100.00
